Cuauhtémoc — XCBF — position and weather

sailwx.info

Track history (hours):
 
Tides and Currents Weather Stations Pressure Air Temp Water Temp Dewpoint Dewpoint Depression Visibility Wind Speed Wind Dir Waves Ship Positions

Cuauhtémoc

Last reported at 2019-Sep-21 04:30 UTC. Time now 2019-Sep-21 04:40 UTC.
Position N 27°59' W 015°14'.

Length 90 m; draft 5.4 m.

MMSI: 345186001.

Date/timePositionNaut miles runAvg speedWind from/ knotsBaromVisibWave heightAir tempDewpointWater temp
2019-Sep-21 04:30N 27°59' W 015°14'0 0.7
2019-Sep-21 04:00N 27°59' W 015°14'0 0.6
2019-Sep-21 03:30N 27°59' W 015°14'0 0.6
2019-Sep-21 03:00N 27°60' W 015°14'0 0.6
2019-Sep-21 02:30N 27°60' W 015°14'0 0.7
2019-Sep-21 02:00N 28°00' W 015°13'0 0.8
2019-Sep-21 01:30N 28°00' W 015°13'1 1.1
2019-Sep-21 01:00N 27°60' W 015°13'4 8.9
2019-Sep-21 00:30N 27°55' W 015°14'4 8.7
2019-Sep-21 00:00N 27°51' W 015°15'4 7.7
2019-Sep-20 23:30N 27°47' W 015°16'1 1.3
2019-Sep-20 23:00N 27°47' W 015°16'1 1.9
2019-Sep-20 22:30N 27°48' W 015°16'1 2.0
2019-Sep-20 21:59N 27°49' W 015°15'1 2.1
2019-Sep-20 21:21N 27°50' W 015°14'1 2.1
2019-Sep-20 21:00N 27°50' W 015°14'1 2.1
2019-Sep-20 20:27N 27°52' W 015°14'1 2.1
2019-Sep-20 20:00N 27°52' W 015°14'1 2.1
2019-Sep-20 19:30N 27°54' W 015°13'1 1.9
2019-Sep-20 19:00N 27°54' W 015°13'1 1.6
2019-Sep-20 18:30N 27°55' W 015°13'1 1.5
2019-Sep-20 18:00N 27°56' W 015°13'1 1.3
2019-Sep-20 17:30N 27°57' W 015°13'1 1.3
2019-Sep-20 17:00N 27°57' W 015°13'1 1.3
2019-Sep-20 16:30N 27°58' W 015°13'1 1.2
2019-Sep-20 16:00N 27°59' W 015°12'1 1.1
2019-Sep-20 15:30N 27°59' W 015°12'1 1.1
2019-Sep-20 15:00N 27°60' W 015°12'1 1.0
2019-Sep-20 14:30N 28°00' W 015°12'0 0.7
2019-Sep-20 14:00N 28°00' W 015°12'3 6.5
2019-Sep-20 13:30N 27°58' W 015°14'3 6.2
2019-Sep-20 13:00N 27°56' W 015°17'1 1.1
2019-Sep-20 12:30N 27°56' W 015°16'1 1.3
2019-Sep-20 12:00N 27°57' W 015°16'1 1.3
2019-Sep-20 11:30N 27°57' W 015°15'1 1.3
2019-Sep-20 11:00N 27°57' W 015°14'1 1.2
2019-Sep-20 10:30N 27°58' W 015°14'1 1.2
2019-Sep-20 10:00N 27°58' W 015°13'1 1.2
2019-Sep-20 09:30N 27°59' W 015°13'1 1.3
2019-Sep-20 09:00N 27°59' W 015°13'1 1.2
2019-Sep-20 08:30N 27°60' W 015°12'1 1.9
2019-Sep-20 08:00N 28°01' W 015°12'510.2
2019-Sep-20 07:30N 28°03' W 015°17'4 8.0
2019-Sep-20 07:00N 28°05' W 015°21'2 3.5
2019-Sep-20 06:30N 28°06' W 015°23'1 1.4
2019-Sep-20 06:00N 28°06' W 015°22'1 1.6
2019-Sep-20 05:30N 28°06' W 015°21'1 2.4
2019-Sep-20 05:00N 28°06' W 015°20'1 2.7
2019-Sep-20 04:30N 28°05' W 015°19'1 2.4
2019-Sep-20 04:00N 28°05' W 015°17'1 2.5
2019-Sep-20 03:30N 28°05' W 015°16'1 2.4
2019-Sep-20 03:00N 28°05' W 015°15'1 2.1
2019-Sep-20 02:30N 28°05' W 015°13'1 2.5
2019-Sep-20 02:00N 28°04' W 015°12'2 3.1
2019-Sep-20 01:30N 28°04' W 015°10'1 1.8
2019-Sep-20 01:00N 28°04' W 015°09'1 2.0
2019-Sep-20 00:30N 28°04' W 015°08'2 3.1
2019-Sep-20 00:00N 28°04' W 015°06'2 4.3
2019-Sep-19 23:30N 28°06' W 015°05'3 6.3
2019-Sep-19 23:00N 28°09' W 015°06'3 5.9
2019-Sep-19 22:30N 28°12' W 015°07'3 6.1
2019-Sep-19 22:00N 28°14' W 015°08'3 6.0
2019-Sep-19 21:30N 28°17' W 015°09'3 6.0
2019-Sep-19 21:00N 28°20' W 015°10'3 5.8
2019-Sep-19 20:30N 28°23' W 015°11'3 5.2
2019-Sep-19 20:00N 28°25' W 015°12'3 6.0
2019-Sep-19 19:30N 28°26' W 015°09'3 6.5
2019-Sep-19 19:00N 28°27' W 015°05'3 6.5
2019-Sep-19 18:30N 28°27' W 015°01'3 5.9
2019-Sep-19 18:00N 28°28' W 014°58'3 6.0
2019-Sep-19 17:30N 28°28' W 014°55'3 6.4
2019-Sep-19 17:00N 28°29' W 014°51'3 6.6
2019-Sep-19 16:30N 28°29' W 014°47'3 6.9
2019-Sep-19 16:00N 28°29' W 014°44'4 7.2
2019-Sep-19 15:30N 28°30' W 014°39'4 6.9
2019-Sep-19 15:00N 28°31' W 014°36'87 5.2
2019-Sep-18 22:13N 29°57' W 014°53'4 5.9
2019-Sep-18 21:35N 29°57' W 014°48'  
2019-Sep-12 10:17N 48°05' W 007°28'  
Track history (hours):
 
Tides and Currents Weather Stations Pressure Air Temp Water Temp Dewpoint Dewpoint Depression Visibility Wind Speed Wind Dir Waves Ship Positions

Cuauhtémoc

Last reported at 2019-Sep-21 04:30 UTC. Time now 2019-Sep-21 04:40 UTC.
Position N 27°59' W 015°14'.

Length 90 m; draft 5.4 m.

MMSI: 345186001.

Date/timePositionNaut miles runAvg speedWind from/ knotsBaromVisibWave heightAir tempDewpointWater temp
2019-Sep-21 04:30N 27°59' W 015°14'0 0.7
2019-Sep-21 04:00N 27°59' W 015°14'0 0.6
2019-Sep-21 03:30N 27°59' W 015°14'0 0.6
2019-Sep-21 03:00N 27°60' W 015°14'0 0.6
2019-Sep-21 02:30N 27°60' W 015°14'0 0.7
2019-Sep-21 02:00N 28°00' W 015°13'0 0.8
2019-Sep-21 01:30N 28°00' W 015°13'1 1.1
2019-Sep-21 01:00N 27°60' W 015°13'4 8.9
2019-Sep-21 00:30N 27°55' W 015°14'4 8.7
2019-Sep-21 00:00N 27°51' W 015°15'4 7.7
2019-Sep-20 23:30N 27°47' W 015°16'1 1.3
2019-Sep-20 23:00N 27°47' W 015°16'1 1.9
2019-Sep-20 22:30N 27°48' W 015°16'1 2.0
2019-Sep-20 21:59N 27°49' W 015°15'1 2.1
2019-Sep-20 21:21N 27°50' W 015°14'1 2.1
2019-Sep-20 21:00N 27°50' W 015°14'1 2.1
2019-Sep-20 20:27N 27°52' W 015°14'1 2.1
2019-Sep-20 20:00N 27°52' W 015°14'1 2.1
2019-Sep-20 19:30N 27°54' W 015°13'1 1.9
2019-Sep-20 19:00N 27°54' W 015°13'1 1.6
2019-Sep-20 18:30N 27°55' W 015°13'1 1.5
2019-Sep-20 18:00N 27°56' W 015°13'1 1.3
2019-Sep-20 17:30N 27°57' W 015°13'1 1.3
2019-Sep-20 17:00N 27°57' W 015°13'1 1.3
2019-Sep-20 16:30N 27°58' W 015°13'1 1.2
2019-Sep-20 16:00N 27°59' W 015°12'1 1.1
2019-Sep-20 15:30N 27°59' W 015°12'1 1.1
2019-Sep-20 15:00N 27°60' W 015°12'1 1.0
2019-Sep-20 14:30N 28°00' W 015°12'0 0.7
2019-Sep-20 14:00N 28°00' W 015°12'3 6.5
2019-Sep-20 13:30N 27°58' W 015°14'3 6.2
2019-Sep-20 13:00N 27°56' W 015°17'1 1.1
2019-Sep-20 12:30N 27°56' W 015°16'1 1.3
2019-Sep-20 12:00N 27°57' W 015°16'1 1.3
2019-Sep-20 11:30N 27°57' W 015°15'1 1.3
2019-Sep-20 11:00N 27°57' W 015°14'1 1.2
2019-Sep-20 10:30N 27°58' W 015°14'1 1.2
2019-Sep-20 10:00N 27°58' W 015°13'1 1.2
2019-Sep-20 09:30N 27°59' W 015°13'1 1.3
2019-Sep-20 09:00N 27°59' W 015°13'1 1.2
2019-Sep-20 08:30N 27°60' W 015°12'1 1.9
2019-Sep-20 08:00N 28°01' W 015°12'510.2
2019-Sep-20 07:30N 28°03' W 015°17'4 8.0
2019-Sep-20 07:00N 28°05' W 015°21'2 3.5
2019-Sep-20 06:30N 28°06' W 015°23'1 1.4
2019-Sep-20 06:00N 28°06' W 015°22'1 1.6
2019-Sep-20 05:30N 28°06' W 015°21'1 2.4
2019-Sep-20 05:00N 28°06' W 015°20'1 2.7
2019-Sep-20 04:30N 28°05' W 015°19'1 2.4
2019-Sep-20 04:00N 28°05' W 015°17'1 2.5
2019-Sep-20 03:30N 28°05' W 015°16'1 2.4
2019-Sep-20 03:00N 28°05' W 015°15'1 2.1
2019-Sep-20 02:30N 28°05' W 015°13'1 2.5
2019-Sep-20 02:00N 28°04' W 015°12'2 3.1
2019-Sep-20 01:30N 28°04' W 015°10'1 1.8
2019-Sep-20 01:00N 28°04' W 015°09'1 2.0
2019-Sep-20 00:30N 28°04' W 015°08'2 3.1
2019-Sep-20 00:00N 28°04' W 015°06'2 4.3
2019-Sep-19 23:30N 28°06' W 015°05'3 6.3
2019-Sep-19 23:00N 28°09' W 015°06'3 5.9
2019-Sep-19 22:30N 28°12' W 015°07'3 6.1
2019-Sep-19 22:00N 28°14' W 015°08'3 6.0
2019-Sep-19 21:30N 28°17' W 015°09'3 6.0
2019-Sep-19 21:00N 28°20' W 015°10'3 5.8
2019-Sep-19 20:30N 28°23' W 015°11'3 5.2
2019-Sep-19 20:00N 28°25' W 015°12'3 6.0
2019-Sep-19 19:30N 28°26' W 015°09'3 6.5
2019-Sep-19 19:00N 28°27' W 015°05'3 6.5
2019-Sep-19 18:30N 28°27' W 015°01'3 5.9
2019-Sep-19 18:00N 28°28' W 014°58'3 6.0
2019-Sep-19 17:30N 28°28' W 014°55'3 6.4
2019-Sep-19 17:00N 28°29' W 014°51'3 6.6
2019-Sep-19 16:30N 28°29' W 014°47'3 6.9
2019-Sep-19 16:00N 28°29' W 014°44'4 7.2
2019-Sep-19 15:30N 28°30' W 014°39'4 6.9
2019-Sep-19 15:00N 28°31' W 014°36'87 5.2
2019-Sep-18 22:13N 29°57' W 014°53'4 5.9
2019-Sep-18 21:35N 29°57' W 014°48'  
2019-Sep-12 10:17N 48°05' W 007°28'  

Dump ship's entire track history